アティラウ の空港の天気 - METARとTAF

Atyrau Airport ( UATG / GUW ) - カザフスタン Atyrau
飛行場実況気象(Metar)
観測時間05/29 03:30 ORAT (05/28 22:30 UTC)
風向・風速南 4m/s
視程10km以上
天気現象
なし
気温14℃
湿度88%
気圧1018hPa
METARUATG 282230Z 17004MPS CAVOK 14/12 Q1018 NOSIG RMK QFE765/1020
過去の天気等 Google飛行場航空写真 Wunderground天気予報

過去48時間のMETAR

飛行場予報(TAF)
発表時間: 5/28 22:07 ORAT (5/28 17:07 UTC)
予報対象時間: 28日23時 ORAT ~ 29日23時 ORAT
風向・風速南 5m/s
視程10km以上
全天の4割程度の雲 雲底高度 1010m
29日1時 ORAT ~ 29日2時 ORAT に徐々に
風向・風速不定 3m/s
視程5000m
天気現象もや
29日8時 ORAT ~ 29日10時 ORAT に徐々に
風向・風速南 7m/s
視程10km以上
天気現象運行に影響にある天気現象が終了
TAF AMD UATG 281707Z 2818/2918 19005MPS 9999 SCT033 TX29/2912Z TN14/2901Z
BECMG 2820/2821 VRB03MPS 5000 BR
BECMG 2903/2905 17007MPS 9999 NSW